Time;durP1;ratioP1;P1;durP2;ratioP2;P2;SDS_P1;SDS_P2;PMS_P1;PMS_P2;Temp;Humidity;BMP_temperature;BMP_pressure;BME280_temperature;BME280_humidity;BME280_pressure;Samples;Min_cycle;Max_cycle;Signal;HPM_P1;HPM_P2
2021/04/12 00:02:17;;;;;;;11.98;4.57;;;;;;;;;;5096279;28;20077;-89
2021/04/12 00:04:46;;;;;;;13.40;5.88;;;;;;;;;;5096332;28;20036;-90
2021/04/12 00:07:16;;;;;;;14.57;5.53;;;;;;;;;;5097083;28;20069;-89
2021/04/12 00:09:45;;;;;;;15.30;5.65;;;;;;;;;;5096788;28;20038;-88
2021/04/12 00:12:31;;;;;;;18.48;6.50;;;;;;;;;;5099724;28;20020;-88
2021/04/12 00:14:59;;;;;;;26.77;8.23;;;;;;;;;;5100226;28;20027;-87
2021/04/12 00:17:33;;;;;;;18.15;5.53;;;;;;;;;;5099995;28;20468;-89
2021/04/12 00:20:08;;;;;;;8.70;3.75;;;;;;;;;;5100427;28;20059;-89
2021/04/12 00:22:36;;;;;;;13.10;4.55;;;;;;;;;;5099554;28;20023;-88
2021/04/12 00:25:19;;;;;;;8.63;3.88;;;;;;;;;;5099799;28;20498;-89
2021/04/12 00:27:48;;;;;;;15.73;4.80;;;;;;;;;;5099641;28;20054;-89
2021/04/12 00:30:21;;;;;;;10.32;3.70;;;;;;;;;;5099123;28;20031;-88
2021/04/12 00:32:59;;;;;;;8.77;3.60;;;;;;;;;;5100027;28;20020;-88
2021/04/12 00:35:29;;;;;;;12.25;4.32;;;;;;;;;;5099458;28;20464;-90
2021/04/12 00:38:14;;;;;;;9.70;4.05;;;;;;;;;;5099301;28;20068;-89
2021/04/12 00:40:43;;;;;;;10.50;4.15;;;;;;;;;;5099134;28;20080;-89
2021/04/12 00:43:22;;;;;;;8.10;4.13;;;;;;;;;;5099457;28;20476;-92
2021/04/12 00:45:49;;;;;;;11.43;4.82;;;;;;;;;;5100728;28;20467;-91
2021/04/12 00:48:34;;;;;;;9.82;4.40;;;;;;;;;;5099874;28;20478;-92
2021/04/12 00:51:18;;;;;;;8.70;3.90;;;;;;;;;;5100070;28;20024;-91
2021/04/12 00:54:03;;;;;;;9.48;3.95;;;;;;;;;;5099693;28;20093;-92
2021/04/12 00:56:33;;;;;;;10.25;4.43;;;;;;;;;;5099902;28;20020;-90
2021/04/12 00:59:03;;;;;;;9.85;4.40;;;;;;;;;;5105496;28;20472;-90
2021/04/12 01:01:29;;;;;;;9.82;4.50;;;;;;;;;;5100361;28;20401;-90
2021/04/12 01:03:58;;;;;;;8.88;4.63;;;;;;;;;;5099696;28;20106;-91
2021/04/12 01:06:43;;;;;;;14.15;5.13;;;;;;;;;;5099368;28;20129;-90
2021/04/12 01:09:24;;;;;;;12.48;4.80;;;;;;;;;;5099174;28;20031;-91
2021/04/12 01:12:06;;;;;;;8.52;4.07;;;;;;;;;;5099188;28;20031;-91
2021/04/12 01:14:54;;;;;;;12.85;5.47;;;;;;;;;;5098905;28;20464;-90
2021/04/12 01:17:29;;;;;;;12.95;6.35;;;;;;;;;;5099418;28;20023;-90
2021/04/12 01:20:05;;;;;;;21.27;6.50;;;;;;;;;;5098819;28;20557;-90
2021/04/12 01:22:50;;;;;;;9.20;3.65;;;;;;;;;;5098695;28;20019;-91
2021/04/12 01:25:28;;;;;;;9.25;3.50;;;;;;;;;;5099655;28;20055;-91
2021/04/12 01:28:13;;;;;;;13.02;4.03;;;;;;;;;;5098751;28;20501;-90
2021/04/12 01:30:57;;;;;;;8.02;4.15;;;;;;;;;;5099373;28;20076;-91
2021/04/12 01:33:29;;;;;;;11.32;4.22;;;;;;;;;;5099854;28;20020;-91
2021/04/12 01:36:20;;;;;;;12.13;3.88;;;;;;;;;;5098474;28;20480;-91
2021/04/12 01:39:05;;;;;;;10.15;4.32;;;;;;;;;;5099418;28;20020;-91
2021/04/12 01:41:37;;;;;;;10.18;3.63;;;;;;;;;;5098654;28;20088;-91
2021/04/12 01:44:16;;;;;;;7.73;3.60;;;;;;;;;;5098955;28;20028;-90
2021/04/12 01:46:50;;;;;;;6.75;3.38;;;;;;;;;;5098507;28;20028;-91
2021/04/12 01:49:23;;;;;;;14.30;3.92;;;;;;;;;;5098271;28;20055;-91
2021/04/12 01:52:08;;;;;;;8.18;4.05;;;;;;;;;;5098536;28;20027;-90
2021/04/12 01:54:34;;;;;;;11.32;3.92;;;;;;;;;;5098110;28;20088;-90
2021/04/12 01:57:19;;;;;;;7.93;3.08;;;;;;;;;;5098473;28;20051;-91
2021/04/12 02:00:04;;;;;;;10.93;3.45;;;;;;;;;;5098560;28;20060;-91
2021/04/12 02:02:30;;;;;;;7.18;3.53;;;;;;;;;;5098377;28;20024;-90
2021/04/12 02:05:07;;;;;;;9.55;3.63;;;;;;;;;;5098039;28;20111;-90
2021/04/12 02:07:38;;;;;;;11.88;3.75;;;;;;;;;;5098343;28;20039;-90
2021/04/12 02:10:21;;;;;;;7.72;3.30;;;;;;;;;;5098839;28;20418;-90
2021/04/12 02:12:59;;;;;;;8.57;3.53;;;;;;;;;;5098050;28;20084;-90
2021/04/12 02:15:43;;;;;;;9.15;3.33;;;;;;;;;;5097971;28;20027;-91
2021/04/12 02:18:28;;;;;;;10.07;2.80;;;;;;;;;;5097925;28;20023;-89
2021/04/12 02:21:06;;;;;;;8.52;3.22;;;;;;;;;;5098239;28;20456;-91
2021/04/12 02:23:42;;;;;;;5.75;2.42;;;;;;;;;;5098637;28;20024;-90
2021/04/12 02:26:14;;;;;;;6.25;2.53;;;;;;;;;;5097694;28;20541;-91
2021/04/12 02:28:47;;;;;;;9.70;3.03;;;;;;;;;;5100256;28;20045;-91
2021/04/12 02:31:32;;;;;;;7.10;2.55;;;;;;;;;;5132729;28;20024;-91
2021/04/12 02:34:00;;;;;;;9.80;2.70;;;;;;;;;;5116004;28;20039;-90
2021/04/12 02:36:35;;;;;;;6.47;2.80;;;;;;;;;;5104296;28;20019;-89
2021/04/12 02:39:06;;;;;;;5.35;2.53;;;;;;;;;;5099927;28;20081;-88
2021/04/12 02:41:55;;;;;;;8.82;3.20;;;;;;;;;;5098616;28;20028;-91
2021/04/12 02:44:40;;;;;;;6.90;3.17;;;;;;;;;;5080523;28;20036;-91
2021/04/12 02:47:15;;;;;;;10.95;2.67;;;;;;;;;;5097373;28;20027;-89
2021/04/12 02:49:59;;;;;;;8.38;2.92;;;;;;;;;;5098379;28;20142;-91
2021/04/12 02:52:29;;;;;;;8.50;2.55;;;;;;;;;;5097217;28;20558;-91
2021/04/12 02:55:13;;;;;;;6.88;3.30;;;;;;;;;;5097288;28;20020;-90
2021/04/12 02:58:00;;;;;;;5.63;3.05;;;;;;;;;;5097551;28;20093;-90
2021/04/12 03:00:38;;;;;;;5.22;2.75;;;;;;;;;;5093094;28;20109;-91
2021/04/12 03:03:07;;;;;;;7.85;2.80;;;;;;;;;;5110816;28;20409;-90
2021/04/12 03:05:48;;;;;;;8.85;2.85;;;;;;;;;;5110510;28;20024;-91
2021/04/12 03:08:35;;;;;;;7.68;3.25;;;;;;;;;;5110753;28;20503;-90
2021/04/12 03:11:27;;;;;;;5.38;2.58;;;;;;;;;;5111895;28;20372;-90
2021/04/12 03:14:11;;;;;;;8.95;3.08;;;;;;;;;;5093358;28;20036;-91
2021/04/12 03:16:56;;;;;;;5.80;2.70;;;;;;;;;;5095498;28;20104;-90
2021/04/12 03:19:48;;;;;;;4.95;2.47;;;;;;;;;;5111171;28;20110;-91
2021/04/12 03:22:20;;;;;;;12.82;3.15;;;;;;;;;;5071284;28;20463;-90
2021/04/12 03:25:21;;;;;;;5.70;2.85;;;;;;;;;;5111305;28;20025;-90
2021/04/12 03:28:01;;;;;;;7.55;2.83;;;;;;;;;;5079311;28;20432;-91
2021/04/12 03:30:30;;;;;;;5.63;3.03;;;;;;;;;;5110621;28;20024;-90
2021/04/12 03:33:02;;;;;;;9.13;3.10;;;;;;;;;;5111466;28;20463;-91
2021/04/12 03:35:41;;;;;;;7.05;2.92;;;;;;;;;;5110982;28;20024;-91
2021/04/12 03:38:13;;;;;;;8.30;3.28;;;;;;;;;;5111277;28;20028;-90
2021/04/12 03:40:41;;;;;;;9.07;2.65;;;;;;;;;;5111193;28;20119;-90
2021/04/12 03:43:13;;;;;;;6.63;3.00;;;;;;;;;;5110157;28;20062;-91
2021/04/12 03:45:58;;;;;;;7.00;3.20;;;;;;;;;;5112166;28;20078;-91
2021/04/12 03:48:49;;;;;;;8.77;3.08;;;;;;;;;;5114643;28;20028;-91
2021/04/12 03:51:33;;;;;;;9.82;3.50;;;;;;;;;;5115197;28;20050;-90
2021/04/12 03:54:11;;;;;;;6.43;2.63;;;;;;;;;;5115248;28;20031;-90
2021/04/12 03:56:56;;;;;;;7.55;3.05;;;;;;;;;;5114559;28;20030;-92
2021/04/12 03:59:31;;;;;;;7.53;3.30;;;;;;;;;;5113806;28;20051;-90
2021/04/12 04:02:20;;;;;;;15.82;3.42;;;;;;;;;;5115036;28;20449;-91
2021/04/12 04:04:46;;;;;;;6.95;2.45;;;;;;;;;;5113699;28;20477;-90
2021/04/12 04:07:28;;;;;;;9.88;3.35;;;;;;;;;;5113869;28;20062;-90
2021/04/12 04:09:54;;;;;;;4.53;2.63;;;;;;;;;;5113617;28;20028;-91
2021/04/12 04:12:25;;;;;;;8.77;3.22;;;;;;;;;;5113822;28;20073;-91
2021/04/12 04:14:57;;;;;;;9.13;3.30;;;;;;;;;;5114246;28;20028;-90
2021/04/12 04:17:31;;;;;;;11.45;3.10;;;;;;;;;;5114335;28;20380;-90
2021/04/12 04:20:18;;;;;;;7.95;3.05;;;;;;;;;;5113439;28;20098;-90
2021/04/12 04:23:16;;;;;;;7.97;3.10;;;;;;;;;;5113702;28;20028;-90
2021/04/12 04:25:58;;;;;;;7.07;2.65;;;;;;;;;;5052667;28;20488;-90
2021/04/12 04:28:56;;;;;;;9.07;3.53;;;;;;;;;;5113812;28;20077;-91
2021/04/12 04:31:40;;;;;;;8.77;4.25;;;;;;;;;;5114668;28;20414;-91
2021/04/12 04:34:09;;;;;;;14.68;4.80;;;;;;;;;;5113215;28;20028;-89
2021/04/12 04:36:59;;;;;;;8.50;4.25;;;;;;;;;;5113960;28;20050;-92
2021/04/12 04:39:28;;;;;;;8.90;4.05;;;;;;;;;;5113005;28;20115;-90
2021/04/12 04:42:02;;;;;;;9.52;5.18;;;;;;;;;;5112973;28;20115;-90
2021/04/12 04:44:35;;;;;;;11.52;4.22;;;;;;;;;;5096162;28;20122;-91
2021/04/12 04:47:23;;;;;;;7.57;3.85;;;;;;;;;;5114875;28;20118;-95
2021/04/12 04:49:52;;;;;;;6.07;3.40;;;;;;;;;;5098199;28;20028;-92
2021/04/12 04:52:45;;;;;;;7.03;3.00;;;;;;;;;;5113867;28;20121;-92
2021/04/12 04:55:14;;;;;;;10.90;3.35;;;;;;;;;;5066236;28;20071;-95
2021/04/12 04:57:43;;;;;;;10.18;3.78;;;;;;;;;;5113767;28;20028;-95
2021/04/12 05:00:10;;;;;;;5.82;2.80;;;;;;;;;;5112328;28;20048;-89
2021/04/12 05:02:43;;;;;;;7.88;3.28;;;;;;;;;;5112604;28;20423;-89
2021/04/12 05:05:09;;;;;;;7.45;3.28;;;;;;;;;;5109760;27;20481;-86
2021/04/12 05:07:45;;;;;;;10.27;3.25;;;;;;;;;;5091339;28;20024;-86
2021/04/12 05:10:14;;;;;;;7.75;3.35;;;;;;;;;;5094383;28;20028;-88
2021/04/12 05:12:48;;;;;;;9.38;3.30;;;;;;;;;;5094704;28;20031;-87
2021/04/12 05:15:14;;;;;;;;;;;;;;;;;;5094599;28;20110;-85
2021/04/12 05:17:49;;;;;;;7.13;3.22;;;;;;;;;;5094355;28;19946;-86
2021/04/12 05:20:34;;;;;;;5.40;2.78;;;;;;;;;;5093880;28;20035;-87
2021/04/12 05:23:21;;;;;;;5.00;2.45;;;;;;;;;;5094321;28;20115;-86
2021/04/12 05:26:02;;;;;;;6.75;2.72;;;;;;;;;;5094200;28;20032;-86
2021/04/12 05:28:43;;;;;;;7.63;2.47;;;;;;;;;;5093882;28;20027;-86
2021/04/12 05:31:19;;;;;;;7.03;2.28;;;;;;;;;;5094190;28;20042;-87
2021/04/12 05:34:04;;;;;;;9.05;3.05;;;;;;;;;;5093477;28;20028;-86
2021/04/12 05:36:42;;;;;;;8.90;2.42;;;;;;;;;;5093634;28;20022;-86
2021/04/12 05:39:40;;;;;;;9.40;2.78;;;;;;;;;;5093731;28;20035;-86
2021/04/12 05:42:28;;;;;;;6.38;2.42;;;;;;;;;;5052823;28;20120;-95
2021/04/12 05:44:57;;;;;;;6.72;2.47;;;;;;;;;;5094382;28;20028;-92
2021/04/12 05:47:30;;;;;;;11.10;4.43;;;;;;;;;;5096524;28;20059;-91
2021/04/12 05:49:56;;;;;;;6.68;3.03;;;;;;;;;;5096070;28;20043;-93
2021/04/12 05:52:41;;;;;;;5.30;2.75;;;;;;;;;;5096670;28;20081;-95
2021/04/12 05:55:32;;;;;;;5.93;2.72;;;;;;;;;;5095977;28;20027;-95
2021/04/12 05:58:19;;;;;;;4.15;2.22;;;;;;;;;;5093932;28;20119;-90
2021/04/12 06:00:54;;;;;;;6.70;2.42;;;;;;;;;;5097491;28;20109;-90
2021/04/12 06:03:35;;;;;;;8.02;2.70;;;;;;;;;;5097855;28;20023;-90
2021/04/12 06:06:01;;;;;;;6.35;2.25;;;;;;;;;;5098029;28;20027;-91
2021/04/12 06:08:33;;;;;;;3.28;2.13;;;;;;;;;;5097944;28;20055;-88
2021/04/12 06:11:00;;;;;;;6.35;2.33;;;;;;;;;;5097833;28;20027;-93
2021/04/12 06:13:45;;;;;;;8.07;2.72;;;;;;;;;;5097625;28;20456;-87
2021/04/12 06:16:20;;;;;;;4.32;2.17;;;;;;;;;;5097284;28;20051;-87
2021/04/12 06:18:52;;;;;;;6.07;2.85;;;;;;;;;;5097106;28;20072;-88
2021/04/12 06:21:38;;;;;;;11.48;3.65;;;;;;;;;;5096876;28;20062;-88
2021/04/12 06:24:07;;;;;;;7.28;3.22;;;;;;;;;;5047074;28;20084;-88
2021/04/12 06:26:40;;;;;;;4.30;2.50;;;;;;;;;;5096603;28;20031;-88
2021/04/12 06:29:31;;;;;;;6.10;2.80;;;;;;;;;;5096632;28;20020;-88
2021/04/12 06:32:16;;;;;;;5.53;2.63;;;;;;;;;;5097777;28;20070;-89
2021/04/12 06:34:51;;;;;;;8.13;2.75;;;;;;;;;;5096707;28;20472;-88
2021/04/12 06:37:20;;;;;;;6.10;2.72;;;;;;;;;;5097013;28;20379;-88
2021/04/12 06:40:05;;;;;;;6.45;2.58;;;;;;;;;;5096703;28;20036;-88
2021/04/12 06:42:49;;;;;;;4.93;2.55;;;;;;;;;;5097129;28;20024;-89
2021/04/12 06:45:31;;;;;;;11.15;2.83;;;;;;;;;;5096943;28;20109;-89
2021/04/12 06:47:57;;;;;;;8.13;3.00;;;;;;;;;;5096799;28;20059;-91
2021/04/12 06:50:43;;;;;;;6.68;3.10;;;;;;;;;;5096730;28;20031;-90
2021/04/12 06:53:18;;;;;;;6.35;2.65;;;;;;;;;;5096342;28;20392;-89
2021/04/12 06:55:57;;;;;;;5.70;2.60;;;;;;;;;;5096587;28;20057;-89
2021/04/12 06:58:33;;;;;;;5.38;2.80;;;;;;;;;;5106492;28;20024;-87
2021/04/12 07:01:02;;;;;;;7.70;2.65;;;;;;;;;;5098773;28;20076;-89
2021/04/12 07:03:47;;;;;;;7.57;2.90;;;;;;;;;;5096554;28;20445;-89
2021/04/12 07:06:32;;;;;;;4.65;2.15;;;;;;;;;;5096751;28;20039;-90
2021/04/12 07:09:19;;;;;;;5.30;2.67;;;;;;;;;;5097260;28;20023;-91
2021/04/12 07:12:10;;;;;;;5.10;2.67;;;;;;;;;;5103771;28;20544;-91
2021/04/12 07:15:10;;;;;;;6.97;2.45;;;;;;;;;;5097029;28;20369;-92
2021/04/12 07:17:36;;;;;;;5.32;2.67;;;;;;;;;;5096442;28;20118;-88
2021/04/12 07:20:21;;;;;;;3.63;2.15;;;;;;;;;;5098072;28;20380;-87
2021/04/12 07:23:11;;;;;;;5.35;2.17;;;;;;;;;;5101246;28;20027;-90
2021/04/12 07:26:08;;;;;;;21.67;2.97;;;;;;;;;;5117158;28;20063;-87
2021/04/12 07:28:45;;;;;;;3.92;2.20;;;;;;;;;;5083482;28;20024;-89
2021/04/12 07:31:16;;;;;;;7.28;2.70;;;;;;;;;;5100578;28;20024;-89
2021/04/12 07:34:01;;;;;;;7.20;2.45;;;;;;;;;;5100220;28;20016;-88
2021/04/12 07:36:46;;;;;;;5.90;2.08;;;;;;;;;;5101010;28;20023;-90
2021/04/12 07:39:42;;;;;;;12.35;2.28;;;;;;;;;;5100898;28;20063;-90
2021/04/12 07:42:30;;;;;;;5.78;2.00;;;;;;;;;;5100691;28;20058;-91
2021/04/12 07:45:08;;;;;;;4.55;2.03;;;;;;;;;;5100531;28;20020;-91
2021/04/12 07:47:41;;;;;;;9.52;1.92;;;;;;;;;;5100553;28;20084;-89
2021/04/12 07:50:13;;;;;;;4.72;2.28;;;;;;;;;;5100216;28;20035;-90
2021/04/12 07:52:39;;;;;;;;;;;;;;;;;;5100917;28;20049;-90
2021/04/12 07:55:20;;;;;;;4.95;1.85;;;;;;;;;;5100457;28;19911;-91
2021/04/12 07:58:05;;;;;;;4.30;1.90;;;;;;;;;;5100089;28;20051;-90
2021/04/12 08:00:50;;;;;;;10.60;2.00;;;;;;;;;;5100151;28;20059;-91
2021/04/12 08:03:35;;;;;;;6.72;2.20;;;;;;;;;;5100357;28;20024;-91
2021/04/12 08:06:20;;;;;;;5.15;2.22;;;;;;;;;;5100176;28;20468;-92
2021/04/12 08:08:57;;;;;;;4.63;2.20;;;;;;;;;;5099802;28;20397;-89
2021/04/12 08:11:44;;;;;;;3.70;2.08;;;;;;;;;;5100643;28;20043;-89
2021/04/12 08:14:19;;;;;;;8.48;2.97;;;;;;;;;;5099944;28;20024;-91
2021/04/12 08:17:05;;;;;;;4.72;2.30;;;;;;;;;;5099769;28;20039;-90
2021/04/12 08:19:35;;;;;;;6.18;1.88;;;;;;;;;;5099843;28;20024;-90
2021/04/12 08:22:24;;;;;;;4.22;1.60;;;;;;;;;;5100247;28;20053;-91
2021/04/12 08:25:18;;;;;;;6.20;2.15;;;;;;;;;;5100209;28;20045;-91
2021/04/12 08:28:05;;;;;;;3.25;1.70;;;;;;;;;;5099920;28;20020;-92
2021/04/12 08:30:31;;;;;;;7.35;1.85;;;;;;;;;;5099309;28;20056;-89
2021/04/12 08:33:16;;;;;;;6.30;1.80;;;;;;;;;;5097767;28;20365;-91
2021/04/12 08:36:01;;;;;;;2.75;1.50;;;;;;;;;;5099190;28;20031;-91
2021/04/12 08:38:49;;;;;;;6.47;1.52;;;;;;;;;;5099356;28;20133;-93
2021/04/12 08:41:34;;;;;;;2.50;1.20;;;;;;;;;;5100028;28;20195;-90
2021/04/12 08:44:12;;;;;;;4.05;1.70;;;;;;;;;;5099603;28;20027;-92
2021/04/12 08:47:03;;;;;;;2.97;1.55;;;;;;;;;;5099238;28;20051;-92
2021/04/12 08:49:49;;;;;;;3.72;1.55;;;;;;;;;;5099152;28;20023;-90
2021/04/12 08:52:34;;;;;;;6.07;1.70;;;;;;;;;;5088482;28;20035;-90
2021/04/12 08:55:08;;;;;;;4.82;2.17;;;;;;;;;;5099004;28;20035;-91
2021/04/12 08:57:34;;;;;;;5.20;1.52;;;;;;;;;;5098836;28;20023;-89
2021/04/12 09:00:03;;;;;;;7.15;2.03;;;;;;;;;;5098540;28;20134;-89
2021/04/12 09:02:49;;;;;;;6.57;2.03;;;;;;;;;;5098623;28;20023;-91
2021/04/12 09:05:25;;;;;;;4.47;1.60;;;;;;;;;;5071508;28;20053;-88
2021/04/12 09:07:51;;;;;;;3.28;1.48;;;;;;;;;;5098766;28;20092;-90
2021/04/12 09:10:29;;;;;;;4.78;1.58;;;;;;;;;;5097696;28;20031;-88
2021/04/12 09:13:14;;;;;;;19.15;12.60;;;;;;;;;;5097868;28;20020;-88
2021/04/12 09:15:43;;;;;;;18.38;2.28;;;;;;;;;;5098169;28;20024;-89
2021/04/12 09:18:25;;;;;;;6.00;1.98;;;;;;;;;;5098127;28;20400;-89
2021/04/12 09:21:10;;;;;;;3.17;1.20;;;;;;;;;;5098701;28;20039;-88
2021/04/12 09:23:54;;;;;;;3.10;1.60;;;;;;;;;;5117030;28;20521;-89
2021/04/12 09:26:34;;;;;;;4.93;1.40;;;;;;;;;;5098365;28;20034;-90
2021/04/12 09:29:19;;;;;;;4.20;1.38;;;;;;;;;;5098899;28;20046;-89
2021/04/12 09:31:48;;;;;;;4.95;1.50;;;;;;;;;;5098556;28;20040;-89
2021/04/12 09:34:33;;;;;;;3.58;1.70;;;;;;;;;;5098331;28;20380;-90
2021/04/12 09:37:18;;;;;;;7.15;2.13;;;;;;;;;;5098857;28;20103;-91
2021/04/12 09:40:03;;;;;;;9.77;1.63;;;;;;;;;;5117143;28;20031;-92
2021/04/12 09:43:11;;;;;;;3.30;1.25;;;;;;;;;;5098902;28;20049;-93
2021/04/12 09:46:04;;;;;;;6.00;1.40;;;;;;;;;;5083487;28;20031;-90
2021/04/12 09:49:02;;;;;;;5.40;1.83;;;;;;;;;;5110005;28;20047;-96
2021/04/12 09:51:47;;;;;;;3.90;1.90;;;;;;;;;;5097729;28;20031;-89
2021/04/12 09:54:22;;;;;;;3.22;1.30;;;;;;;;;;5097981;28;20035;-91
2021/04/12 09:57:11;;;;;;;2.95;1.30;;;;;;;;;;5097330;28;20050;-88
2021/04/12 09:59:46;;;;;;;4.30;1.33;;;;;;;;;;5097080;28;20500;-90
2021/04/12 10:02:18;;;;;;;3.13;1.45;;;;;;;;;;5114488;27;20159;-87
2021/04/12 10:05:00;;;;;;;11.93;1.63;;;;;;;;;;5118008;27;20465;-89
2021/04/12 10:07:39;;;;;;;6.95;1.83;;;;;;;;;;5117481;27;20041;-87
2021/04/12 10:10:09;;;;;;;10.55;1.98;;;;;;;;;;5117223;27;20102;-88
2021/04/12 10:12:54;;;;;;;4.78;1.80;;;;;;;;;;5117172;27;20027;-88
2021/04/12 10:15:39;;;;;;;3.22;1.55;;;;;;;;;;5135546;27;20027;-88
2021/04/12 10:18:08;;;;;;;4.47;1.60;;;;;;;;;;5116793;27;20028;-88
2021/04/12 10:20:47;;;;;;;3.92;1.50;;;;;;;;;;5117184;27;20100;-88
2021/04/12 10:23:20;;;;;;;2.05;1.30;;;;;;;;;;5117900;27;20057;-93
2021/04/12 10:25:47;;;;;;;;;;;;;;;;;;5117232;27;20031;-89
2021/04/12 10:28:16;;;;;;;3.55;1.83;;;;;;;;;;5116953;27;19907;-89
2021/04/12 10:30:49;;;;;;;5.18;1.90;;;;;;;;;;5117162;27;20039;-89
2021/04/12 10:33:20;;;;;;;3.35;1.73;;;;;;;;;;5117201;27;20019;-88
2021/04/12 10:35:48;;;;;;;4.07;1.58;;;;;;;;;;5116544;27;20106;-88
2021/04/12 10:38:21;;;;;;;3.20;1.50;;;;;;;;;;5116866;27;20080;-89
2021/04/12 10:40:51;;;;;;;5.60;1.60;;;;;;;;;;5116851;27;20070;-88
2021/04/12 10:43:29;;;;;;;2.60;1.42;;;;;;;;;;5116782;27;20134;-88
2021/04/12 10:45:59;;;;;;;4.78;1.42;;;;;;;;;;5116403;27;20027;-89
2021/04/12 10:48:30;;;;;;;4.80;1.67;;;;;;;;;;5116519;27;20015;-88
2021/04/12 10:51:01;;;;;;;4.07;1.87;;;;;;;;;;5116796;27;20108;-88
2021/04/12 10:53:45;;;;;;;10.43;1.88;;;;;;;;;;5117050;28;20030;-88
2021/04/12 10:56:22;;;;;;;6.30;2.42;;;;;;;;;;5116639;27;20035;-88
2021/04/12 10:58:51;;;;;;;4.72;1.95;;;;;;;;;;5114978;27;20063;-89
2021/04/12 11:01:30;;;;;;;4.85;1.70;;;;;;;;;;5086968;28;20035;-88
2021/04/12 11:04:15;;;;;;;17.88;1.83;;;;;;;;;;5076145;28;20074;-88
2021/04/12 11:06:48;;;;;;;3.20;1.88;;;;;;;;;;5077096;28;20526;-94
2021/04/12 11:09:27;;;;;;;3.63;1.60;;;;;;;;;;5077165;28;20024;-94
2021/04/12 11:12:11;;;;;;;4.57;2.03;;;;;;;;;;5078193;28;20463;-87
2021/04/12 11:14:41;;;;;;;4.55;2.25;;;;;;;;;;5075714;28;20024;-87
2021/04/12 11:17:13;;;;;;;4.85;1.80;;;;;;;;;;5074143;28;20120;-87
2021/04/12 11:19:46;;;;;;;6.32;2.25;;;;;;;;;;5075400;28;20123;-89
2021/04/12 11:22:42;;;;;;;5.97;1.63;;;;;;;;;;5075994;28;20174;-89
2021/04/12 11:25:14;;;;;;;2.63;1.60;;;;;;;;;;5055356;28;20036;-89
2021/04/12 11:28:02;;;;;;;4.60;1.45;;;;;;;;;;5075107;28;20074;-89
2021/04/12 11:30:38;;;;;;;5.43;1.67;;;;;;;;;;5075922;28;20035;-88
2021/04/12 11:33:22;;;;;;;3.08;1.60;;;;;;;;;;5075260;28;20031;-87
2021/04/12 11:36:07;;;;;;;6.68;1.88;;;;;;;;;;5075357;28;20024;-88
2021/04/12 11:38:59;;;;;;;3.17;1.55;;;;;;;;;;5075164;28;20504;-89
2021/04/12 11:41:29;;;;;;;5.10;1.60;;;;;;;;;;5070431;28;20043;-86
2021/04/12 11:43:57;;;;;;;8.85;1.77;;;;;;;;;;5075685;28;20586;-87
2021/04/12 11:46:31;;;;;;;3.90;1.80;;;;;;;;;;5075453;28;20078;-89
2021/04/12 11:49:03;;;;;;;3.10;1.60;;;;;;;;;;5075804;28;20054;-89
2021/04/12 11:51:32;;;;;;;4.35;1.63;;;;;;;;;;5075207;28;20024;-88
2021/04/12 11:54:01;;;;;;;4.65;1.75;;;;;;;;;;5075406;28;20064;-87
2021/04/12 11:56:42;;;;;;;3.95;1.50;;;;;;;;;;5075617;28;20020;-88
2021/04/12 11:59:27;;;;;;;4.00;1.40;;;;;;;;;;5079866;28;20058;-88
2021/04/12 12:01:57;;;;;;;6.82;1.60;;;;;;;;;;5095440;28;20046;-88
2021/04/12 12:04:26;;;;;;;4.22;1.67;;;;;;;;;;5114119;28;20111;-86
2021/04/12 12:07:16;;;;;;;3.08;1.45;;;;;;;;;;5097897;28;20027;-88
2021/04/12 12:09:48;;;;;;;5.43;1.70;;;;;;;;;;5108692;28;20027;-89
2021/04/12 12:12:26;;;;;;;8.27;1.70;;;;;;;;;;5111102;28;20372;-89
2021/04/12 12:14:57;;;;;;;6.70;1.55;;;;;;;;;;5117667;28;20036;-89
2021/04/12 12:17:25;;;;;;;4.53;1.85;;;;;;;;;;5099583;28;20035;-89
2021/04/12 12:19:53;;;;;;;6.80;1.73;;;;;;;;;;5117900;28;20070;-89
2021/04/12 12:22:22;;;;;;;2.70;1.35;;;;;;;;;;5100009;28;20027;-89
2021/04/12 12:25:08;;;;;;;7.15;1.80;;;;;;;;;;5099926;28;20068;-90
2021/04/12 12:27:40;;;;;;;5.47;1.55;;;;;;;;;;5100666;28;20027;-92
2021/04/12 12:30:18;;;;;;;9.18;2.33;;;;;;;;;;5100895;28;20031;-95
2021/04/12 12:32:51;;;;;;;3.88;1.80;;;;;;;;;;5100776;28;20088;-89
2021/04/12 12:35:26;;;;;;;9.40;1.85;;;;;;;;;;5099221;28;20515;-88
2021/04/12 12:38:11;;;;;;;3.60;1.75;;;;;;;;;;5098726;28;20019;-88
2021/04/12 12:40:43;;;;;;;5.10;1.85;;;;;;;;;;5100075;28;20079;-88
2021/04/12 12:43:12;;;;;;;4.83;1.30;;;;;;;;;;5106173;28;20069;-87
2021/04/12 12:45:40;;;;;;;6.25;1.55;;;;;;;;;;5104083;28;20046;-89
2021/04/12 12:48:15;;;;;;;6.63;2.42;;;;;;;;;;5099260;28;20024;-89
2021/04/12 12:50:46;;;;;;;7.85;1.80;;;;;;;;;;5099224;28;20107;-89
2021/04/12 12:53:34;;;;;;;3.28;1.67;;;;;;;;;;5099258;28;20024;-89
2021/04/12 12:56:14;;;;;;;3.92;1.88;;;;;;;;;;5098701;28;20031;-88
2021/04/12 12:58:52;;;;;;;5.90;1.98;;;;;;;;;;5098240;28;20384;-88
2021/04/12 13:01:25;;;;;;;5.40;2.00;;;;;;;;;;5098465;28;20038;-88
2021/04/12 13:03:51;;;;;;;;;;;;;;;;;;5108496;28;20046;-86
2021/04/12 13:06:28;;;;;;;4.20;1.90;;;;;;;;;;5102744;28;19904;-88
2021/04/12 13:08:56;;;;;;;3.78;1.65;;;;;;;;;;5098375;28;20038;-89
2021/04/12 13:11:37;;;;;;;4.63;1.98;;;;;;;;;;5097923;28;20155;-88
2021/04/12 13:14:14;;;;;;;3.88;1.50;;;;;;;;;;5097860;28;20028;-88
2021/04/12 13:16:41;;;;;;;11.70;1.60;;;;;;;;;;5097552;28;20027;-89
2021/04/12 13:19:08;;;;;;;5.85;1.70;;;;;;;;;;5097026;28;20376;-90
2021/04/12 13:21:44;;;;;;;10.23;2.28;;;;;;;;;;5100824;28;20066;-90
2021/04/12 13:24:26;;;;;;;4.50;1.52;;;;;;;;;;5099416;28;20480;-88
2021/04/12 13:27:10;;;;;;;10.60;1.75;;;;;;;;;;5099221;28;20027;-88
2021/04/12 13:29:57;;;;;;;4.72;1.67;;;;;;;;;;5097541;28;20027;-87
2021/04/12 13:32:25;;;;;;;5.20;1.90;;;;;;;;;;5097305;28;20080;-89
2021/04/12 13:34:55;;;;;;;6.57;1.85;;;;;;;;;;5098131;28;20024;-90
2021/04/12 13:37:24;;;;;;;8.02;1.85;;;;;;;;;;5098796;28;20533;-90
2021/04/12 13:39:53;;;;;;;3.15;1.48;;;;;;;;;;5098365;28;20522;-90
2021/04/12 13:42:25;;;;;;;4.28;1.27;;;;;;;;;;5097742;28;20106;-90
2021/04/12 13:44:56;;;;;;;4.63;1.60;;;;;;;;;;5098067;28;20027;-92
2021/04/12 13:47:34;;;;;;;5.03;1.90;;;;;;;;;;5097681;28;20032;-91
2021/04/12 13:50:22;;;;;;;5.68;1.35;;;;;;;;;;5098187;28;20027;-90
2021/04/12 13:52:57;;;;;;;8.07;1.63;;;;;;;;;;5097312;28;20472;-91
2021/04/12 13:55:27;;;;;;;4.65;1.60;;;;;;;;;;5097943;28;20383;-89
2021/04/12 13:58:07;;;;;;;7.00;2.15;;;;;;;;;;5097332;28;20519;-87
2021/04/12 14:00:35;;;;;;;6.82;2.10;;;;;;;;;;5097396;28;20044;-90
2021/04/12 14:03:24;;;;;;;4.63;2.10;;;;;;;;;;5097711;28;20019;-91
2021/04/12 14:06:17;;;;;;;4.95;1.88;;;;;;;;;;5084708;28;20519;-93
2021/04/12 14:08:47;;;;;;;120.40;7.13;;;;;;;;;;5093314;28;20032;-92
2021/04/12 14:11:19;;;;;;;5.25;1.75;;;;;;;;;;5097747;28;20503;-92
2021/04/12 14:13:49;;;;;;;3.13;1.65;;;;;;;;;;5099003;28;20030;-92
2021/04/12 14:16:20;;;;;;;9.65;1.77;;;;;;;;;;5097795;28;20083;-91
2021/04/12 14:19:05;;;;;;;5.15;1.70;;;;;;;;;;5097004;28;20069;-90
2021/04/12 14:21:39;;;;;;;10.25;1.55;;;;;;;;;;5116182;28;20035;-90
2021/04/12 14:24:08;;;;;;;7.13;1.98;;;;;;;;;;5098158;28;20024;-90
2021/04/12 14:26:43;;;;;;;51.90;4.13;;;;;;;;;;5097612;28;20023;-91
2021/04/12 14:29:20;;;;;;;8.75;2.10;;;;;;;;;;5098467;28;20024;-91
2021/04/12 14:31:47;;;;;;;6.82;2.15;;;;;;;;;;5129896;28;20020;-90
2021/04/12 14:34:30;;;;;;;14.23;2.42;;;;;;;;;;5101773;28;20118;-93
2021/04/12 14:37:02;;;;;;;4.78;1.70;;;;;;;;;;5099080;28;20028;-88
2021/04/12 14:39:31;;;;;;;31.80;4.05;;;;;;;;;;5097325;28;20035;-89
2021/04/12 14:42:01;;;;;;;13.73;6.20;;;;;;;;;;5097320;28;20126;-91
2021/04/12 14:44:30;;;;;;;9.20;5.28;;;;;;;;;;5097686;28;20468;-90
2021/04/12 14:46:58;;;;;;;10.20;5.40;;;;;;;;;;5098156;28;20029;-91
2021/04/12 14:49:27;;;;;;;16.23;5.40;;;;;;;;;;5097405;28;20034;-93
2021/04/12 14:51:58;;;;;;;9.55;5.45;;;;;;;;;;5097416;28;20023;-89
2021/04/12 14:54:30;;;;;;;12.35;5.28;;;;;;;;;;5097269;28;20031;-90
2021/04/12 14:57:02;;;;;;;13.43;5.60;;;;;;;;;;5097120;28;20038;-89
2021/04/12 14:59:38;;;;;;;9.75;5.88;;;;;;;;;;5097141;28;20055;-89
2021/04/12 15:02:08;;;;;;;11.13;5.53;;;;;;;;;;5097096;28;20036;-89
2021/04/12 15:04:35;;;;;;;10.85;5.28;;;;;;;;;;5096824;28;20019;-89
2021/04/12 15:07:12;;;;;;;10.95;5.55;;;;;;;;;;5097422;28;20037;-90
2021/04/12 15:10:01;;;;;;;13.25;5.35;;;;;;;;;;5096700;28;20051;-89
2021/04/12 15:12:32;;;;;;;21.65;6.18;;;;;;;;;;5105258;28;20028;-92
2021/04/12 15:15:08;;;;;;;12.38;5.78;;;;;;;;;;5102816;28;20118;-91
2021/04/12 15:17:48;;;;;;;10.35;5.57;;;;;;;;;;5111419;28;20043;-96
2021/04/12 15:20:20;;;;;;;12.60;6.20;;;;;;;;;;5102699;28;20479;-95
2021/04/12 15:22:49;;;;;;;38.60;6.40;;;;;;;;;;5098021;28;20028;-93
2021/04/12 15:25:15;;;;;;;15.07;5.22;;;;;;;;;;5097289;28;20106;-91
2021/04/12 15:27:42;;;;;;;11.65;4.57;;;;;;;;;;5096594;28;20027;-91
2021/04/12 15:30:10;;;;;;;11.98;4.65;;;;;;;;;;5096825;28;20019;-91
2021/04/12 15:32:42;;;;;;;17.65;5.60;;;;;;;;;;5096708;28;20019;-91
2021/04/12 15:35:14;;;;;;;8.02;4.88;;;;;;;;;;5097110;28;20028;-91
2021/04/12 15:37:43;;;;;;;10.35;4.47;;;;;;;;;;5096646;28;20020;-87
2021/04/12 15:40:12;;;;;;;10.93;4.65;;;;;;;;;;5096531;28;20035;-92
2021/04/12 15:42:47;;;;;;;9.65;4.65;;;;;;;;;;5100021;28;20022;-93